sensor_id;sensor_type;location;lat;lon;timestamp;P1;durP1;ratioP1;P2;durP2;ratioP2
57055;SDS011;42945;51.718;5.324;2023-04-25T00:01:46;18.55;;;3.70;;
57055;SDS011;42945;51.718;5.324;2023-04-25T00:04:12;14.18;;;3.08;;
57055;SDS011;42945;51.718;5.324;2023-04-25T00:06:38;16.08;;;4.00;;
57055;SDS011;42945;51.718;5.324;2023-04-25T00:09:05;24.23;;;4.10;;
57055;SDS011;42945;51.718;5.324;2023-04-25T00:11:35;16.55;;;4.15;;
57055;SDS011;42945;51.718;5.324;2023-04-25T00:14:02;17.38;;;3.60;;
57055;SDS011;42945;51.718;5.324;2023-04-25T00:16:28;15.88;;;3.80;;
57055;SDS011;42945;51.718;5.324;2023-04-25T00:18:55;14.23;;;4.57;;
57055;SDS011;42945;51.718;5.324;2023-04-25T00:21:21;23.95;;;4.53;;
57055;SDS011;42945;51.718;5.324;2023-04-25T00:23:49;20.80;;;5.03;;
57055;SDS011;42945;51.718;5.324;2023-04-25T00:26:14;22.95;;;4.45;;
57055;SDS011;42945;51.718;5.324;2023-04-25T00:28:40;20.40;;;4.75;;
57055;SDS011;42945;51.718;5.324;2023-04-25T00:31:05;22.10;;;4.65;;
57055;SDS011;42945;51.718;5.324;2023-04-25T00:33:31;20.25;;;3.90;;
57055;SDS011;42945;51.718;5.324;2023-04-25T00:35:56;18.80;;;3.70;;
57055;SDS011;42945;51.718;5.324;2023-04-25T00:38:21;23.40;;;3.85;;
57055;SDS011;42945;51.718;5.324;2023-04-25T00:40:47;19.02;;;3.53;;
57055;SDS011;42945;51.718;5.324;2023-04-25T00:43:12;18.25;;;4.10;;
57055;SDS011;42945;51.718;5.324;2023-04-25T00:45:38;20.13;;;3.88;;
57055;SDS011;42945;51.718;5.324;2023-04-25T00:48:04;20.42;;;3.55;;
57055;SDS011;42945;51.718;5.324;2023-04-25T00:50:30;20.50;;;4.38;;
57055;SDS011;42945;51.718;5.324;2023-04-25T00:52:57;20.10;;;4.85;;
57055;SDS011;42945;51.718;5.324;2023-04-25T00:55:22;16.52;;;3.97;;
57055;SDS011;42945;51.718;5.324;2023-04-25T00:57:48;19.95;;;4.47;;
57055;SDS011;42945;51.718;5.324;2023-04-25T01:00:14;24.60;;;4.43;;
57055;SDS011;42945;51.718;5.324;2023-04-25T01:02:40;21.83;;;4.63;;
57055;SDS011;42945;51.718;5.324;2023-04-25T01:05:07;18.95;;;4.20;;
57055;SDS011;42945;51.718;5.324;2023-04-25T01:07:33;19.13;;;4.60;;
57055;SDS011;42945;51.718;5.324;2023-04-25T01:09:59;22.88;;;4.68;;
57055;SDS011;42945;51.718;5.324;2023-04-25T01:12:24;22.73;;;4.97;;
57055;SDS011;42945;51.718;5.324;2023-04-25T01:14:49;24.67;;;4.70;;
57055;SDS011;42945;51.718;5.324;2023-04-25T01:17:15;25.33;;;5.35;;
57055;SDS011;42945;51.718;5.324;2023-04-25T01:19:41;20.75;;;4.75;;
57055;SDS011;42945;51.718;5.324;2023-04-25T01:22:06;15.20;;;4.90;;
57055;SDS011;42945;51.718;5.324;2023-04-25T01:24:32;23.45;;;5.30;;
57055;SDS011;42945;51.718;5.324;2023-04-25T01:26:58;18.58;;;4.63;;
57055;SDS011;42945;51.718;5.324;2023-04-25T01:29:25;17.80;;;4.70;;
57055;SDS011;42945;51.718;5.324;2023-04-25T01:31:52;24.73;;;5.55;;
57055;SDS011;42945;51.718;5.324;2023-04-25T01:34:18;18.90;;;4.93;;
57055;SDS011;42945;51.718;5.324;2023-04-25T01:36:43;20.42;;;4.95;;
57055;SDS011;42945;51.718;5.324;2023-04-25T01:39:09;14.70;;;4.70;;
57055;SDS011;42945;51.718;5.324;2023-04-25T01:41:34;24.58;;;4.82;;
57055;SDS011;42945;51.718;5.324;2023-04-25T01:44:00;25.33;;;5.10;;
57055;SDS011;42945;51.718;5.324;2023-04-25T01:46:26;19.23;;;4.75;;
57055;SDS011;42945;51.718;5.324;2023-04-25T01:48:51;22.23;;;4.85;;
57055;SDS011;42945;51.718;5.324;2023-04-25T01:51:17;21.38;;;4.65;;
57055;SDS011;42945;51.718;5.324;2023-04-25T01:53:42;21.42;;;4.57;;
57055;SDS011;42945;51.718;5.324;2023-04-25T01:56:08;26.65;;;5.35;;
57055;SDS011;42945;51.718;5.324;2023-04-25T01:58:33;19.98;;;5.03;;
57055;SDS011;42945;51.718;5.324;2023-04-25T02:00:59;17.70;;;5.35;;
57055;SDS011;42945;51.718;5.324;2023-04-25T02:03:24;22.50;;;4.90;;
57055;SDS011;42945;51.718;5.324;2023-04-25T02:05:50;26.27;;;5.55;;
57055;SDS011;42945;51.718;5.324;2023-04-25T02:08:16;21.25;;;4.82;;
57055;SDS011;42945;51.718;5.324;2023-04-25T02:10:42;26.05;;;4.90;;
57055;SDS011;42945;51.718;5.324;2023-04-25T02:13:08;24.33;;;4.75;;
57055;SDS011;42945;51.718;5.324;2023-04-25T02:15:33;22.30;;;5.25;;
57055;SDS011;42945;51.718;5.324;2023-04-25T02:17:59;19.80;;;4.32;;
57055;SDS011;42945;51.718;5.324;2023-04-25T02:20:28;26.58;;;4.75;;
57055;SDS011;42945;51.718;5.324;2023-04-25T02:22:55;15.88;;;4.82;;
57055;SDS011;42945;51.718;5.324;2023-04-25T02:25:20;27.10;;;5.00;;
57055;SDS011;42945;51.718;5.324;2023-04-25T02:27:46;20.00;;;4.85;;
57055;SDS011;42945;51.718;5.324;2023-04-25T02:30:12;28.40;;;5.20;;
57055;SDS011;42945;51.718;5.324;2023-04-25T02:32:38;26.60;;;4.95;;
57055;SDS011;42945;51.718;5.324;2023-04-25T02:35:05;25.33;;;4.75;;
57055;SDS011;42945;51.718;5.324;2023-04-25T02:37:31;27.67;;;5.32;;
57055;SDS011;42945;51.718;5.324;2023-04-25T02:39:58;26.30;;;5.30;;
57055;SDS011;42945;51.718;5.324;2023-04-25T02:42:23;23.75;;;5.10;;
57055;SDS011;42945;51.718;5.324;2023-04-25T02:44:49;29.02;;;5.32;;
57055;SDS011;42945;51.718;5.324;2023-04-25T02:47:14;21.73;;;4.93;;
57055;SDS011;42945;51.718;5.324;2023-04-25T02:49:39;26.20;;;5.50;;
57055;SDS011;42945;51.718;5.324;2023-04-25T02:52:05;27.27;;;5.63;;
57055;SDS011;42945;51.718;5.324;2023-04-25T02:54:31;26.02;;;5.53;;
57055;SDS011;42945;51.718;5.324;2023-04-25T02:56:57;27.08;;;5.75;;
57055;SDS011;42945;51.718;5.324;2023-04-25T02:59:22;27.45;;;5.63;;
57055;SDS011;42945;51.718;5.324;2023-04-25T03:01:48;24.17;;;5.35;;
57055;SDS011;42945;51.718;5.324;2023-04-25T03:04:13;29.27;;;5.68;;
57055;SDS011;42945;51.718;5.324;2023-04-25T03:06:38;32.92;;;5.80;;
57055;SDS011;42945;51.718;5.324;2023-04-25T03:09:03;26.20;;;5.93;;
57055;SDS011;42945;51.718;5.324;2023-04-25T03:11:29;24.75;;;6.05;;
57055;SDS011;42945;51.718;5.324;2023-04-25T03:13:54;29.30;;;5.82;;
57055;SDS011;42945;51.718;5.324;2023-04-25T03:16:20;26.27;;;5.43;;
57055;SDS011;42945;51.718;5.324;2023-04-25T03:18:46;18.38;;;4.53;;
57055;SDS011;42945;51.718;5.324;2023-04-25T03:21:11;27.90;;;5.60;;
57055;SDS011;42945;51.718;5.324;2023-04-25T03:23:37;15.82;;;5.43;;
57055;SDS011;42945;51.718;5.324;2023-04-25T03:26:02;30.33;;;5.97;;
57055;SDS011;42945;51.718;5.324;2023-04-25T03:28:27;36.78;;;5.88;;
57055;SDS011;42945;51.718;5.324;2023-04-25T03:30:53;23.25;;;5.75;;
57055;SDS011;42945;51.718;5.324;2023-04-25T03:33:19;32.63;;;6.15;;
57055;SDS011;42945;51.718;5.324;2023-04-25T03:35:44;24.50;;;5.80;;
57055;SDS011;42945;51.718;5.324;2023-04-25T03:38:09;20.98;;;5.38;;
57055;SDS011;42945;51.718;5.324;2023-04-25T03:40:35;25.88;;;5.57;;
57055;SDS011;42945;51.718;5.324;2023-04-25T03:43:00;28.67;;;6.13;;
57055;SDS011;42945;51.718;5.324;2023-04-25T03:45:25;31.08;;;5.88;;
57055;SDS011;42945;51.718;5.324;2023-04-25T03:47:51;27.75;;;6.45;;
57055;SDS011;42945;51.718;5.324;2023-04-25T03:50:16;20.42;;;5.53;;
57055;SDS011;42945;51.718;5.324;2023-04-25T03:52:42;26.88;;;5.68;;
57055;SDS011;42945;51.718;5.324;2023-04-25T03:55:08;23.00;;;5.53;;
57055;SDS011;42945;51.718;5.324;2023-04-25T03:57:33;26.38;;;5.30;;
57055;SDS011;42945;51.718;5.324;2023-04-25T03:59:59;23.92;;;4.60;;
57055;SDS011;42945;51.718;5.324;2023-04-25T04:02:24;27.05;;;5.78;;
57055;SDS011;42945;51.718;5.324;2023-04-25T04:04:49;38.05;;;5.20;;
57055;SDS011;42945;51.718;5.324;2023-04-25T04:07:15;26.42;;;5.20;;
57055;SDS011;42945;51.718;5.324;2023-04-25T04:09:40;26.60;;;4.75;;
57055;SDS011;42945;51.718;5.324;2023-04-25T04:12:05;26.35;;;5.32;;
57055;SDS011;42945;51.718;5.324;2023-04-25T04:14:31;26.30;;;5.32;;
57055;SDS011;42945;51.718;5.324;2023-04-25T04:16:56;22.73;;;4.72;;
57055;SDS011;42945;51.718;5.324;2023-04-25T04:19:21;26.60;;;4.90;;
57055;SDS011;42945;51.718;5.324;2023-04-25T04:21:47;20.70;;;4.80;;
57055;SDS011;42945;51.718;5.324;2023-04-25T04:24:12;23.58;;;4.68;;
57055;SDS011;42945;51.718;5.324;2023-04-25T04:26:38;19.17;;;4.93;;
57055;SDS011;42945;51.718;5.324;2023-04-25T04:29:04;19.15;;;4.68;;
57055;SDS011;42945;51.718;5.324;2023-04-25T04:31:29;20.30;;;4.03;;
57055;SDS011;42945;51.718;5.324;2023-04-25T04:33:54;22.55;;;4.93;;
57055;SDS011;42945;51.718;5.324;2023-04-25T04:36:20;16.10;;;3.88;;
57055;SDS011;42945;51.718;5.324;2023-04-25T04:38:46;20.20;;;4.63;;
57055;SDS011;42945;51.718;5.324;2023-04-25T04:41:12;23.60;;;4.32;;
57055;SDS011;42945;51.718;5.324;2023-04-25T04:43:37;18.65;;;4.07;;
57055;SDS011;42945;51.718;5.324;2023-04-25T04:46:04;19.25;;;3.78;;
57055;SDS011;42945;51.718;5.324;2023-04-25T04:48:33;20.60;;;3.97;;
57055;SDS011;42945;51.718;5.324;2023-04-25T04:50:59;18.48;;;3.83;;
57055;SDS011;42945;51.718;5.324;2023-04-25T04:53:25;12.90;;;3.33;;
57055;SDS011;42945;51.718;5.324;2023-04-25T04:55:51;17.05;;;3.17;;
57055;SDS011;42945;51.718;5.324;2023-04-25T04:58:17;16.20;;;3.50;;
57055;SDS011;42945;51.718;5.324;2023-04-25T05:00:43;15.05;;;3.30;;
57055;SDS011;42945;51.718;5.324;2023-04-25T05:03:08;20.13;;;4.20;;
57055;SDS011;42945;51.718;5.324;2023-04-25T05:05:33;15.23;;;3.53;;
57055;SDS011;42945;51.718;5.324;2023-04-25T05:07:58;15.80;;;3.63;;
57055;SDS011;42945;51.718;5.324;2023-04-25T05:10:25;19.95;;;4.00;;
57055;SDS011;42945;51.718;5.324;2023-04-25T05:12:51;17.38;;;3.33;;
57055;SDS011;42945;51.718;5.324;2023-04-25T05:15:16;14.55;;;3.78;;
57055;SDS011;42945;51.718;5.324;2023-04-25T05:17:41;18.75;;;4.10;;
57055;SDS011;42945;51.718;5.324;2023-04-25T05:20:07;14.23;;;3.90;;
57055;SDS011;42945;51.718;5.324;2023-04-25T05:22:34;12.00;;;3.13;;
57055;SDS011;42945;51.718;5.324;2023-04-25T05:24:59;20.27;;;3.72;;
57055;SDS011;42945;51.718;5.324;2023-04-25T05:27:25;13.65;;;3.80;;
57055;SDS011;42945;51.718;5.324;2023-04-25T05:29:50;17.25;;;3.50;;
57055;SDS011;42945;51.718;5.324;2023-04-25T05:32:16;20.55;;;3.92;;
57055;SDS011;42945;51.718;5.324;2023-04-25T05:34:42;19.58;;;3.85;;
57055;SDS011;42945;51.718;5.324;2023-04-25T05:37:07;14.65;;;3.60;;
57055;SDS011;42945;51.718;5.324;2023-04-25T05:39:33;16.95;;;3.83;;
57055;SDS011;42945;51.718;5.324;2023-04-25T05:41:59;19.02;;;3.53;;
57055;SDS011;42945;51.718;5.324;2023-04-25T05:44:24;23.33;;;3.50;;
57055;SDS011;42945;51.718;5.324;2023-04-25T05:46:49;13.77;;;3.35;;
57055;SDS011;42945;51.718;5.324;2023-04-25T05:49:15;14.18;;;3.22;;
57055;SDS011;42945;51.718;5.324;2023-04-25T05:51:40;15.23;;;3.03;;
57055;SDS011;42945;51.718;5.324;2023-04-25T05:54:08;15.35;;;2.85;;
57055;SDS011;42945;51.718;5.324;2023-04-25T05:56:34;15.35;;;3.40;;
57055;SDS011;42945;51.718;5.324;2023-04-25T05:59:01;17.20;;;2.80;;
57055;SDS011;42945;51.718;5.324;2023-04-25T06:01:26;13.27;;;3.38;;
57055;SDS011;42945;51.718;5.324;2023-04-25T06:03:51;15.52;;;3.28;;
57055;SDS011;42945;51.718;5.324;2023-04-25T06:06:17;8.43;;;2.65;;
57055;SDS011;42945;51.718;5.324;2023-04-25T06:08:43;8.65;;;2.53;;
57055;SDS011;42945;51.718;5.324;2023-04-25T06:11:08;13.80;;;2.97;;
57055;SDS011;42945;51.718;5.324;2023-04-25T06:13:33;19.05;;;3.25;;
57055;SDS011;42945;51.718;5.324;2023-04-25T06:15:59;11.75;;;2.67;;
57055;SDS011;42945;51.718;5.324;2023-04-25T06:18:26;17.90;;;3.30;;
57055;SDS011;42945;51.718;5.324;2023-04-25T06:20:51;8.90;;;2.58;;
57055;SDS011;42945;51.718;5.324;2023-04-25T06:23:16;13.48;;;2.38;;
57055;SDS011;42945;51.718;5.324;2023-04-25T06:25:42;12.00;;;2.47;;
57055;SDS011;42945;51.718;5.324;2023-04-25T06:28:07;13.05;;;2.03;;
57055;SDS011;42945;51.718;5.324;2023-04-25T06:30:33;6.53;;;2.00;;
57055;SDS011;42945;51.718;5.324;2023-04-25T06:32:58;14.85;;;2.50;;
57055;SDS011;42945;51.718;5.324;2023-04-25T06:35:23;10.18;;;2.22;;
57055;SDS011;42945;51.718;5.324;2023-04-25T06:37:48;11.25;;;2.70;;
57055;SDS011;42945;51.718;5.324;2023-04-25T06:40:14;12.60;;;2.35;;
57055;SDS011;42945;51.718;5.324;2023-04-25T06:42:40;11.00;;;2.70;;
57055;SDS011;42945;51.718;5.324;2023-04-25T06:45:05;15.48;;;2.72;;
57055;SDS011;42945;51.718;5.324;2023-04-25T06:47:31;9.90;;;2.00;;
57055;SDS011;42945;51.718;5.324;2023-04-25T06:49:56;12.55;;;2.08;;
57055;SDS011;42945;51.718;5.324;2023-04-25T06:52:21;7.20;;;1.95;;
57055;SDS011;42945;51.718;5.324;2023-04-25T06:54:47;7.10;;;1.73;;
57055;SDS011;42945;51.718;5.324;2023-04-25T06:57:12;8.60;;;2.20;;
57055;SDS011;42945;51.718;5.324;2023-04-25T06:59:38;9.57;;;1.90;;
57055;SDS011;42945;51.718;5.324;2023-04-25T07:02:03;11.70;;;2.00;;
57055;SDS011;42945;51.718;5.324;2023-04-25T07:04:28;8.43;;;2.03;;
57055;SDS011;42945;51.718;5.324;2023-04-25T07:06:55;18.30;;;2.30;;
57055;SDS011;42945;51.718;5.324;2023-04-25T07:09:20;12.13;;;3.05;;
57055;SDS011;42945;51.718;5.324;2023-04-25T07:11:46;10.75;;;2.00;;
57055;SDS011;42945;51.718;5.324;2023-04-25T07:14:11;9.70;;;1.90;;
57055;SDS011;42945;51.718;5.324;2023-04-25T07:16:36;13.13;;;2.10;;
57055;SDS011;42945;51.718;5.324;2023-04-25T07:19:02;7.70;;;1.83;;
57055;SDS011;42945;51.718;5.324;2023-04-25T07:21:27;12.27;;;2.33;;
57055;SDS011;42945;51.718;5.324;2023-04-25T07:23:52;9.43;;;1.40;;
57055;SDS011;42945;51.718;5.324;2023-04-25T07:26:18;11.55;;;2.10;;
57055;SDS011;42945;51.718;5.324;2023-04-25T07:28:43;7.07;;;1.77;;
57055;SDS011;42945;51.718;5.324;2023-04-25T07:31:08;10.77;;;1.65;;
57055;SDS011;42945;51.718;5.324;2023-04-25T07:33:34;13.52;;;2.03;;
57055;SDS011;42945;51.718;5.324;2023-04-25T07:35:59;10.02;;;1.90;;
57055;SDS011;42945;51.718;5.324;2023-04-25T07:38:25;9.10;;;1.67;;
57055;SDS011;42945;51.718;5.324;2023-04-25T07:40:50;9.70;;;1.77;;
57055;SDS011;42945;51.718;5.324;2023-04-25T07:43:16;12.13;;;1.85;;
57055;SDS011;42945;51.718;5.324;2023-04-25T07:45:42;12.15;;;2.10;;
57055;SDS011;42945;51.718;5.324;2023-04-25T07:48:08;9.10;;;2.42;;
57055;SDS011;42945;51.718;5.324;2023-04-25T07:50:33;10.43;;;2.20;;
57055;SDS011;42945;51.718;5.324;2023-04-25T07:52:59;8.88;;;2.10;;
57055;SDS011;42945;51.718;5.324;2023-04-25T07:55:24;9.40;;;2.15;;
57055;SDS011;42945;51.718;5.324;2023-04-25T07:57:49;10.38;;;1.83;;
57055;SDS011;42945;51.718;5.324;2023-04-25T08:00:15;13.20;;;1.95;;
57055;SDS011;42945;51.718;5.324;2023-04-25T08:02:40;6.63;;;1.60;;
57055;SDS011;42945;51.718;5.324;2023-04-25T08:05:06;10.57;;;1.80;;
57055;SDS011;42945;51.718;5.324;2023-04-25T08:07:33;7.35;;;1.00;;
57055;SDS011;42945;51.718;5.324;2023-04-25T08:09:58;10.43;;;1.27;;
57055;SDS011;42945;51.718;5.324;2023-04-25T08:12:24;12.32;;;1.90;;
57055;SDS011;42945;51.718;5.324;2023-04-25T08:14:49;8.77;;;1.83;;
57055;SDS011;42945;51.718;5.324;2023-04-25T08:17:15;12.80;;;2.13;;
57055;SDS011;42945;51.718;5.324;2023-04-25T08:19:42;11.32;;;1.80;;
57055;SDS011;42945;51.718;5.324;2023-04-25T08:22:07;9.30;;;1.83;;
57055;SDS011;42945;51.718;5.324;2023-04-25T08:24:33;9.32;;;1.40;;
57055;SDS011;42945;51.718;5.324;2023-04-25T08:26:59;6.45;;;1.30;;
57055;SDS011;42945;51.718;5.324;2023-04-25T08:29:24;11.38;;;1.77;;
57055;SDS011;42945;51.718;5.324;2023-04-25T08:31:50;9.20;;;1.35;;
57055;SDS011;42945;51.718;5.324;2023-04-25T08:34:17;9.40;;;1.63;;
57055;SDS011;42945;51.718;5.324;2023-04-25T08:36:43;9.45;;;1.25;;
57055;SDS011;42945;51.718;5.324;2023-04-25T08:39:08;12.55;;;1.48;;
57055;SDS011;42945;51.718;5.324;2023-04-25T08:41:34;15.77;;;1.83;;
57055;SDS011;42945;51.718;5.324;2023-04-25T08:44:02;12.38;;;1.73;;
57055;SDS011;42945;51.718;5.324;2023-04-25T08:46:28;5.57;;;0.95;;
57055;SDS011;42945;51.718;5.324;2023-04-25T08:48:56;5.60;;;1.45;;
57055;SDS011;42945;51.718;5.324;2023-04-25T08:51:26;8.68;;;1.42;;
57055;SDS011;42945;51.718;5.324;2023-04-25T08:53:53;9.88;;;1.42;;
57055;SDS011;42945;51.718;5.324;2023-04-25T08:56:18;9.82;;;1.60;;
57055;SDS011;42945;51.718;5.324;2023-04-25T08:58:50;9.20;;;1.63;;
57055;SDS011;42945;51.718;5.324;2023-04-25T09:01:15;8.15;;;1.35;;
57055;SDS011;42945;51.718;5.324;2023-04-25T09:03:41;10.68;;;1.63;;
57055;SDS011;42945;51.718;5.324;2023-04-25T09:06:09;7.07;;;1.33;;
57055;SDS011;42945;51.718;5.324;2023-04-25T09:08:36;12.63;;;1.92;;
57055;SDS011;42945;51.718;5.324;2023-04-25T09:11:02;7.80;;;1.48;;
57055;SDS011;42945;51.718;5.324;2023-04-25T09:13:28;9.65;;;1.25;;
57055;SDS011;42945;51.718;5.324;2023-04-25T09:15:54;5.32;;;1.30;;
57055;SDS011;42945;51.718;5.324;2023-04-25T09:20:53;4.28;;;0.85;;
57055;SDS011;42945;51.718;5.324;2023-04-25T09:23:29;7.47;;;0.82;;
57055;SDS011;42945;51.718;5.324;2023-04-25T09:25:54;8.68;;;1.30;;
57055;SDS011;42945;51.718;5.324;2023-04-25T09:28:23;6.63;;;0.90;;
57055;SDS011;42945;51.718;5.324;2023-04-25T09:33:27;3.72;;;0.77;;
57055;SDS011;42945;51.718;5.324;2023-04-25T09:35:54;10.38;;;1.30;;
57055;SDS011;42945;51.718;5.324;2023-04-25T09:40:55;4.32;;;0.68;;
57055;SDS011;42945;51.718;5.324;2023-04-25T09:43:23;5.95;;;0.60;;
57055;SDS011;42945;51.718;5.324;2023-04-25T09:45:49;6.55;;;0.63;;
57055;SDS011;42945;51.718;5.324;2023-04-25T09:48:26;8.13;;;1.20;;
57055;SDS011;42945;51.718;5.324;2023-04-25T09:51:09;7.57;;;1.55;;
57055;SDS011;42945;51.718;5.324;2023-04-25T09:53:42;5.05;;;1.80;;
57055;SDS011;42945;51.718;5.324;2023-04-25T09:56:09;7.43;;;1.17;;
57055;SDS011;42945;51.718;5.324;2023-04-25T09:58:36;8.88;;;1.33;;
57055;SDS011;42945;51.718;5.324;2023-04-25T10:01:05;3.67;;;1.05;;
57055;SDS011;42945;51.718;5.324;2023-04-25T10:03:33;4.55;;;0.90;;
57055;SDS011;42945;51.718;5.324;2023-04-25T10:06:00;5.35;;;1.05;;
57055;SDS011;42945;51.718;5.324;2023-04-25T10:08:29;7.28;;;1.10;;
57055;SDS011;42945;51.718;5.324;2023-04-25T10:10:59;7.82;;;1.10;;
57055;SDS011;42945;51.718;5.324;2023-04-25T10:13:25;7.45;;;1.42;;
57055;SDS011;42945;51.718;5.324;2023-04-25T10:15:52;5.13;;;1.02;;
57055;SDS011;42945;51.718;5.324;2023-04-25T10:18:19;11.30;;;1.67;;
57055;SDS011;42945;51.718;5.324;2023-04-25T10:20:45;7.55;;;1.00;;
57055;SDS011;42945;51.718;5.324;2023-04-25T10:23:13;8.18;;;1.38;;
57055;SDS011;42945;51.718;5.324;2023-04-25T10:25:40;7.05;;;0.90;;
57055;SDS011;42945;51.718;5.324;2023-04-25T10:28:06;4.90;;;1.15;;
57055;SDS011;42945;51.718;5.324;2023-04-25T10:30:32;7.90;;;0.70;;
57055;SDS011;42945;51.718;5.324;2023-04-25T10:32:58;2.60;;;0.70;;
57055;SDS011;42945;51.718;5.324;2023-04-25T10:35:25;5.25;;;0.50;;
57055;SDS011;42945;51.718;5.324;2023-04-25T10:38:11;5.20;;;0.63;;
57055;SDS011;42945;51.718;5.324;2023-04-25T10:40:39;3.55;;;0.70;;
57055;SDS011;42945;51.718;5.324;2023-04-25T10:51:25;5.97;;;0.77;;
57055;SDS011;42945;51.718;5.324;2023-04-25T10:54:02;2.97;;;0.65;;
57055;SDS011;42945;51.718;5.324;2023-04-25T10:56:29;9.13;;;0.90;;
57055;SDS011;42945;51.718;5.324;2023-04-25T10:59:03;6.05;;;1.00;;
57055;SDS011;42945;51.718;5.324;2023-04-25T11:01:29;4.97;;;1.13;;
57055;SDS011;42945;51.718;5.324;2023-04-25T11:04:04;4.60;;;0.90;;
57055;SDS011;42945;51.718;5.324;2023-04-25T11:09:23;7.82;;;1.52;;
57055;SDS011;42945;51.718;5.324;2023-04-25T11:11:56;6.10;;;0.90;;
57055;SDS011;42945;51.718;5.324;2023-04-25T11:14:23;7.07;;;0.63;;
57055;SDS011;42945;51.718;5.324;2023-04-25T11:16:54;7.45;;;1.35;;
57055;SDS011;42945;51.718;5.324;2023-04-25T11:19:21;5.13;;;0.75;;
57055;SDS011;42945;51.718;5.324;2023-04-25T11:21:46;4.78;;;0.50;;
57055;SDS011;42945;51.718;5.324;2023-04-25T11:24:12;2.63;;;0.70;;
57055;SDS011;42945;51.718;5.324;2023-04-25T11:26:37;5.70;;;0.73;;
57055;SDS011;42945;51.718;5.324;2023-04-25T11:29:02;4.88;;;0.88;;
57055;SDS011;42945;51.718;5.324;2023-04-25T11:31:28;5.90;;;0.75;;
57055;SDS011;42945;51.718;5.324;2023-04-25T11:33:56;5.07;;;1.13;;
57055;SDS011;42945;51.718;5.324;2023-04-25T11:36:22;5.72;;;0.60;;
57055;SDS011;42945;51.718;5.324;2023-04-25T11:38:49;4.97;;;0.50;;
57055;SDS011;42945;51.718;5.324;2023-04-25T11:41:16;5.82;;;0.52;;
57055;SDS011;42945;51.718;5.324;2023-04-25T11:43:42;1.55;;;0.40;;
57055;SDS011;42945;51.718;5.324;2023-04-25T11:46:08;4.65;;;0.40;;
57055;SDS011;42945;51.718;5.324;2023-04-25T11:48:37;1.80;;;0.40;;
57055;SDS011;42945;51.718;5.324;2023-04-25T11:51:06;3.20;;;0.68;;
57055;SDS011;42945;51.718;5.324;2023-04-25T11:53:32;4.47;;;0.60;;
57055;SDS011;42945;51.718;5.324;2023-04-25T11:55:57;5.13;;;0.70;;
57055;SDS011;42945;51.718;5.324;2023-04-25T11:58:23;3.75;;;0.63;;
57055;SDS011;42945;51.718;5.324;2023-04-25T12:00:48;2.83;;;0.40;;
57055;SDS011;42945;51.718;5.324;2023-04-25T12:03:14;4.20;;;0.85;;
57055;SDS011;42945;51.718;5.324;2023-04-25T12:05:39;3.40;;;0.52;;
57055;SDS011;42945;51.718;5.324;2023-04-25T12:08:14;4.72;;;0.65;;
57055;SDS011;42945;51.718;5.324;2023-04-25T12:10:44;7.47;;;0.70;;
57055;SDS011;42945;51.718;5.324;2023-04-25T12:15:49;5.43;;;0.82;;
57055;SDS011;42945;51.718;5.324;2023-04-25T12:18:15;5.07;;;0.90;;
57055;SDS011;42945;51.718;5.324;2023-04-25T12:20:44;6.65;;;1.00;;
57055;SDS011;42945;51.718;5.324;2023-04-25T12:23:10;10.05;;;1.10;;
57055;SDS011;42945;51.718;5.324;2023-04-25T12:25:42;1.80;;;0.63;;
57055;SDS011;42945;51.718;5.324;2023-04-25T12:28:13;4.57;;;0.60;;
57055;SDS011;42945;51.718;5.324;2023-04-25T12:33:23;3.67;;;0.90;;
57055;SDS011;42945;51.718;5.324;2023-04-25T12:35:55;7.25;;;0.63;;
57055;SDS011;42945;51.718;5.324;2023-04-25T12:40:52;2.70;;;0.73;;
57055;SDS011;42945;51.718;5.324;2023-04-25T12:43:18;8.55;;;1.02;;
57055;SDS011;42945;51.718;5.324;2023-04-25T12:45:46;7.25;;;1.15;;
57055;SDS011;42945;51.718;5.324;2023-04-25T12:48:12;6.45;;;0.70;;
57055;SDS011;42945;51.718;5.324;2023-04-25T12:50:38;4.05;;;1.13;;
57055;SDS011;42945;51.718;5.324;2023-04-25T12:53:06;4.97;;;1.05;;
57055;SDS011;42945;51.718;5.324;2023-04-25T12:55:31;7.32;;;1.02;;
57055;SDS011;42945;51.718;5.324;2023-04-25T12:57:56;6.03;;;1.20;;
57055;SDS011;42945;51.718;5.324;2023-04-25T13:00:22;4.30;;;0.70;;
57055;SDS011;42945;51.718;5.324;2023-04-25T13:02:47;5.35;;;0.75;;
57055;SDS011;42945;51.718;5.324;2023-04-25T13:05:12;7.40;;;1.25;;
57055;SDS011;42945;51.718;5.324;2023-04-25T13:07:38;4.20;;;0.77;;
57055;SDS011;42945;51.718;5.324;2023-04-25T13:10:04;7.50;;;0.90;;
57055;SDS011;42945;51.718;5.324;2023-04-25T13:12:30;5.65;;;0.93;;
57055;SDS011;42945;51.718;5.324;2023-04-25T13:14:56;1.73;;;0.60;;
57055;SDS011;42945;51.718;5.324;2023-04-25T13:17:22;9.02;;;1.02;;
57055;SDS011;42945;51.718;5.324;2023-04-25T13:19:47;4.97;;;0.90;;
57055;SDS011;42945;51.718;5.324;2023-04-25T13:22:13;7.72;;;1.10;;
57055;SDS011;42945;51.718;5.324;2023-04-25T13:24:40;4.40;;;0.65;;
57055;SDS011;42945;51.718;5.324;2023-04-25T13:27:05;6.10;;;1.08;;
57055;SDS011;42945;51.718;5.324;2023-04-25T13:29:31;4.70;;;1.10;;
57055;SDS011;42945;51.718;5.324;2023-04-25T13:31:56;4.30;;;0.80;;
57055;SDS011;42945;51.718;5.324;2023-04-25T13:34:21;2.40;;;0.60;;
57055;SDS011;42945;51.718;5.324;2023-04-25T13:36:47;7.18;;;1.00;;
57055;SDS011;42945;51.718;5.324;2023-04-25T13:39:12;6.57;;;1.10;;
57055;SDS011;42945;51.718;5.324;2023-04-25T13:41:38;6.45;;;1.17;;
57055;SDS011;42945;51.718;5.324;2023-04-25T13:44:03;6.38;;;1.10;;
57055;SDS011;42945;51.718;5.324;2023-04-25T13:46:29;4.25;;;0.95;;
57055;SDS011;42945;51.718;5.324;2023-04-25T13:48:54;8.52;;;1.20;;
57055;SDS011;42945;51.718;5.324;2023-04-25T13:51:19;10.05;;;1.10;;
57055;SDS011;42945;51.718;5.324;2023-04-25T13:53:45;6.60;;;0.70;;
57055;SDS011;42945;51.718;5.324;2023-04-25T13:56:12;7.10;;;0.93;;
57055;SDS011;42945;51.718;5.324;2023-04-25T13:58:37;5.35;;;1.30;;
57055;SDS011;42945;51.718;5.324;2023-04-25T14:01:02;11.35;;;1.30;;
57055;SDS011;42945;51.718;5.324;2023-04-25T14:03:28;6.93;;;1.02;;
57055;SDS011;42945;51.718;5.324;2023-04-25T14:05:54;5.72;;;0.90;;
57055;SDS011;42945;51.718;5.324;2023-04-25T14:08:20;9.15;;;1.30;;
57055;SDS011;42945;51.718;5.324;2023-04-25T14:10:45;9.98;;;1.50;;
57055;SDS011;42945;51.718;5.324;2023-04-25T14:13:11;5.63;;;1.30;;
57055;SDS011;42945;51.718;5.324;2023-04-25T14:15:36;4.97;;;0.90;;
57055;SDS011;42945;51.718;5.324;2023-04-25T14:18:02;22.85;;;1.23;;
57055;SDS011;42945;51.718;5.324;2023-04-25T14:20:27;4.90;;;0.93;;
57055;SDS011;42945;51.718;5.324;2023-04-25T14:22:53;10.05;;;0.93;;
57055;SDS011;42945;51.718;5.324;2023-04-25T14:25:20;5.25;;;1.10;;
57055;SDS011;42945;51.718;5.324;2023-04-25T14:27:46;7.30;;;0.85;;
57055;SDS011;42945;51.718;5.324;2023-04-25T14:30:14;6.88;;;0.98;;
57055;SDS011;42945;51.718;5.324;2023-04-25T14:32:44;5.15;;;0.80;;
57055;SDS011;42945;51.718;5.324;2023-04-25T14:35:10;4.60;;;0.70;;
57055;SDS011;42945;51.718;5.324;2023-04-25T14:37:35;5.32;;;0.90;;
57055;SDS011;42945;51.718;5.324;2023-04-25T14:40:01;5.63;;;0.70;;
57055;SDS011;42945;51.718;5.324;2023-04-25T14:42:26;2.92;;;0.90;;
57055;SDS011;42945;51.718;5.324;2023-04-25T14:44:51;4.68;;;1.17;;
57055;SDS011;42945;51.718;5.324;2023-04-25T14:47:17;4.53;;;0.63;;
57055;SDS011;42945;51.718;5.324;2023-04-25T14:49:42;5.65;;;0.80;;
57055;SDS011;42945;51.718;5.324;2023-04-25T14:52:07;6.93;;;1.10;;
57055;SDS011;42945;51.718;5.324;2023-04-25T14:54:33;7.35;;;1.52;;
57055;SDS011;42945;51.718;5.324;2023-04-25T14:57:02;7.82;;;0.93;;
57055;SDS011;42945;51.718;5.324;2023-04-25T14:59:27;5.53;;;1.13;;
57055;SDS011;42945;51.718;5.324;2023-04-25T15:01:53;5.20;;;1.13;;